sensor_id;sensor_type;location;lat;lon;timestamp;pressure;altitude;pressure_sealevel;temperature;humidity
32243;BME280;18731;42.830;24.390;2023-03-18T04:02:40;94898.69;;;-0.58;73.01
32243;BME280;18731;42.830;24.390;2023-03-18T04:05:09;94897.59;;;-0.62;73.72
32243;BME280;18731;42.830;24.390;2023-03-18T04:07:36;94887.91;;;-0.62;73.93
32243;BME280;18731;42.830;24.390;2023-03-18T04:10:02;94893.47;;;-0.58;73.65
32243;BME280;18731;42.830;24.390;2023-03-18T04:12:28;94899.00;;;-0.55;73.31
32243;BME280;18731;42.830;24.390;2023-03-18T04:14:54;94891.38;;;-0.56;72.70
32243;BME280;18731;42.830;24.390;2023-03-18T04:17:20;94893.00;;;-0.50;76.56
32243;BME280;18731;42.830;24.390;2023-03-18T04:19:46;94902.47;;;-0.49;73.15
32243;BME280;18731;42.830;24.390;2023-03-18T04:22:11;94905.66;;;-0.42;74.06
32243;BME280;18731;42.830;24.390;2023-03-18T04:24:37;94903.75;;;-0.52;72.73
32243;BME280;18731;42.830;24.390;2023-03-18T04:27:03;94899.53;;;-0.53;72.97
32243;BME280;18731;42.830;24.390;2023-03-18T04:29:30;94892.66;;;-0.59;72.64
32243;BME280;18731;42.830;24.390;2023-03-18T04:31:56;94891.31;;;-0.61;72.63
32243;BME280;18731;42.830;24.390;2023-03-18T04:34:23;94892.91;;;-0.60;72.60
32243;BME280;18731;42.830;24.390;2023-03-18T04:36:49;94879.22;;;-0.68;72.47
32243;BME280;18731;42.830;24.390;2023-03-18T04:39:15;94902.66;;;-0.56;72.66
32243;BME280;18731;42.830;24.390;2023-03-18T04:41:41;94902.84;;;-0.62;72.67
32243;BME280;18731;42.830;24.390;2023-03-18T04:44:06;94906.72;;;-0.70;72.53
32243;BME280;18731;42.830;24.390;2023-03-18T04:46:32;94920.84;;;-0.71;72.89
32243;BME280;18731;42.830;24.390;2023-03-18T04:48:58;94917.38;;;-0.77;73.13
32243;BME280;18731;42.830;24.390;2023-03-18T04:51:24;94904.66;;;-0.90;73.74
32243;BME280;18731;42.830;24.390;2023-03-18T04:53:50;94914.41;;;-0.85;73.74
32243;BME280;18731;42.830;24.390;2023-03-18T04:56:17;94924.22;;;-0.76;73.55
32243;BME280;18731;42.830;24.390;2023-03-18T04:58:43;94915.63;;;-0.71;73.11
32243;BME280;18731;42.830;24.390;2023-03-18T05:01:08;94918.97;;;-0.76;73.31
32243;BME280;18731;42.830;24.390;2023-03-18T05:03:35;94912.75;;;-0.70;73.66
32243;BME280;18731;42.830;24.390;2023-03-18T05:06:01;94918.59;;;-0.62;73.23
32243;BME280;18731;42.830;24.390;2023-03-18T05:08:26;94912.25;;;-0.67;73.31
32243;BME280;18731;42.830;24.390;2023-03-18T05:10:52;94914.97;;;-0.56;73.17
32243;BME280;18731;42.830;24.390;2023-03-18T05:13:18;94917.16;;;-0.48;73.40
32243;BME280;18731;42.830;24.390;2023-03-18T05:15:44;94912.84;;;-0.33;73.24
32243;BME280;18731;42.830;24.390;2023-03-18T05:18:10;94906.69;;;-0.16;73.37
32243;BME280;18731;42.830;24.390;2023-03-18T05:20:37;94895.50;;;-0.02;73.95
32243;BME280;18731;42.830;24.390;2023-03-18T05:23:04;94890.25;;;-0.02;73.70
32243;BME280;18731;42.830;24.390;2023-03-18T05:25:30;94897.34;;;-0.02;74.51
32243;BME280;18731;42.830;24.390;2023-03-18T05:27:56;94897.50;;;0.18;74.45
32243;BME280;18731;42.830;24.390;2023-03-18T05:30:22;94875.28;;;0.31;74.22
32243;BME280;18731;42.830;24.390;2023-03-18T05:32:48;94887.97;;;0.49;74.13
32243;BME280;18731;42.830;24.390;2023-03-18T05:35:14;94870.19;;;0.61;74.58
32243;BME280;18731;42.830;24.390;2023-03-18T05:37:40;94892.91;;;0.93;73.60
32243;BME280;18731;42.830;24.390;2023-03-18T05:40:08;94891.41;;;1.12;73.16
32243;BME280;18731;42.830;24.390;2023-03-18T05:42:36;94879.88;;;1.28;72.37
32243;BME280;18731;42.830;24.390;2023-03-18T05:45:03;94882.53;;;1.54;71.10
32243;BME280;18731;42.830;24.390;2023-03-18T05:47:30;94887.78;;;1.44;70.59
32243;BME280;18731;42.830;24.390;2023-03-18T05:49:55;94882.53;;;1.54;70.38
32243;BME280;18731;42.830;24.390;2023-03-18T05:52:21;94884.13;;;1.70;70.85
32243;BME280;18731;42.830;24.390;2023-03-18T05:54:47;94878.09;;;2.00;70.13
32243;BME280;18731;42.830;24.390;2023-03-18T05:57:14;94878.31;;;2.29;69.53
32243;BME280;18731;42.830;24.390;2023-03-18T05:59:40;94879.38;;;2.33;68.83
32243;BME280;18731;42.830;24.390;2023-03-18T06:02:05;94880.94;;;2.34;68.63
32243;BME280;18731;42.830;24.390;2023-03-18T06:04:31;94878.53;;;2.58;71.08
32243;BME280;18731;42.830;24.390;2023-03-18T06:06:57;94876.19;;;2.62;68.49
32243;BME280;18731;42.830;24.390;2023-03-18T06:09:23;94883.53;;;2.59;67.24
32243;BME280;18731;42.830;24.390;2023-03-18T06:11:50;94887.25;;;2.38;67.93
32243;BME280;18731;42.830;24.390;2023-03-18T06:14:16;94890.38;;;2.71;67.76
32243;BME280;18731;42.830;24.390;2023-03-18T06:16:43;94873.53;;;2.51;67.67
32243;BME280;18731;42.830;24.390;2023-03-18T06:19:10;94882.75;;;2.49;67.87
32243;BME280;18731;42.830;24.390;2023-03-18T06:21:39;94869.56;;;2.64;68.00
32243;BME280;18731;42.830;24.390;2023-03-18T06:24:06;94878.69;;;2.97;68.08
32243;BME280;18731;42.830;24.390;2023-03-18T06:26:32;94878.03;;;3.26;67.69
32243;BME280;18731;42.830;24.390;2023-03-18T06:28:58;94869.84;;;3.66;67.34
32243;BME280;18731;42.830;24.390;2023-03-18T06:31:24;94855.81;;;4.05;66.58
32243;BME280;18731;42.830;24.390;2023-03-18T06:33:50;94871.34;;;4.40;65.25
32243;BME280;18731;42.830;24.390;2023-03-18T06:36:16;94871.25;;;4.50;64.40
32243;BME280;18731;42.830;24.390;2023-03-18T06:38:43;94881.56;;;4.76;63.71
32243;BME280;18731;42.830;24.390;2023-03-18T06:41:10;94879.13;;;5.03;63.48
32243;BME280;18731;42.830;24.390;2023-03-18T06:43:36;94871.06;;;5.13;63.25
32243;BME280;18731;42.830;24.390;2023-03-18T06:46:02;94837.31;;;5.05;62.64
32243;BME280;18731;42.830;24.390;2023-03-18T06:48:27;94875.69;;;5.27;60.80
32243;BME280;18731;42.830;24.390;2023-03-18T06:50:53;94882.44;;;5.38;61.52
32243;BME280;18731;42.830;24.390;2023-03-18T06:53:19;94842.25;;;5.12;60.74
32243;BME280;18731;42.830;24.390;2023-03-18T06:55:45;94862.84;;;5.39;59.91
32243;BME280;18731;42.830;24.390;2023-03-18T06:58:11;94871.13;;;5.70;56.60
32243;BME280;18731;42.830;24.390;2023-03-18T07:00:36;94861.41;;;5.65;55.19
32243;BME280;18731;42.830;24.390;2023-03-18T07:03:02;94855.75;;;5.72;58.92
32243;BME280;18731;42.830;24.390;2023-03-18T07:05:29;94876.84;;;6.15;58.25
32243;BME280;18731;42.830;24.390;2023-03-18T07:07:54;94860.53;;;5.89;57.30
32243;BME280;18731;42.830;24.390;2023-03-18T07:10:25;94872.56;;;5.62;57.08
32243;BME280;18731;42.830;24.390;2023-03-18T07:12:52;94872.78;;;5.66;57.66
32243;BME280;18731;42.830;24.390;2023-03-18T07:15:19;94858.44;;;5.86;56.11
32243;BME280;18731;42.830;24.390;2023-03-18T07:17:48;94861.19;;;5.99;55.13
32243;BME280;18731;42.830;24.390;2023-03-18T07:20:14;94864.22;;;6.39;55.79
32243;BME280;18731;42.830;24.390;2023-03-18T07:22:44;94856.41;;;6.75;55.36
32243;BME280;18731;42.830;24.390;2023-03-18T07:25:10;94860.13;;;7.29;54.05
32243;BME280;18731;42.830;24.390;2023-03-18T07:27:36;94866.09;;;7.84;54.01
32243;BME280;18731;42.830;24.390;2023-03-18T07:30:02;94870.78;;;8.23;49.46
32243;BME280;18731;42.830;24.390;2023-03-18T07:32:27;94866.16;;;8.60;48.56
32243;BME280;18731;42.830;24.390;2023-03-18T07:34:55;94862.97;;;8.80;46.87
32243;BME280;18731;42.830;24.390;2023-03-18T07:37:22;94875.78;;;9.18;47.28
32243;BME280;18731;42.830;24.390;2023-03-18T07:39:48;94890.56;;;9.41;46.44
32243;BME280;18731;42.830;24.390;2023-03-18T07:42:13;94868.50;;;9.58;44.85
32243;BME280;18731;42.830;24.390;2023-03-18T07:44:39;94890.78;;;9.88;45.15
32243;BME280;18731;42.830;24.390;2023-03-18T07:47:05;94886.53;;;9.70;42.06
32243;BME280;18731;42.830;24.390;2023-03-18T07:49:30;94898.28;;;9.03;41.56
32243;BME280;18731;42.830;24.390;2023-03-18T07:51:56;94898.25;;;8.63;43.04
32243;BME280;18731;42.830;24.390;2023-03-18T07:54:22;94902.56;;;8.28;43.06
32243;BME280;18731;42.830;24.390;2023-03-18T07:56:49;94885.16;;;8.22;45.96
32243;BME280;18731;42.830;24.390;2023-03-18T07:59:16;94912.59;;;8.31;43.75
32243;BME280;18731;42.830;24.390;2023-03-18T08:01:42;94909.09;;;8.45;42.47
32243;BME280;18731;42.830;24.390;2023-03-18T08:04:08;94904.97;;;8.16;42.02
32243;BME280;18731;42.830;24.390;2023-03-18T08:06:33;94912.16;;;7.93;42.44
32243;BME280;18731;42.830;24.390;2023-03-18T08:09:00;94924.56;;;7.70;42.63
32243;BME280;18731;42.830;24.390;2023-03-18T08:11:26;94923.53;;;7.44;43.54
32243;BME280;18731;42.830;24.390;2023-03-18T08:13:51;94923.13;;;7.51;43.43
32243;BME280;18731;42.830;24.390;2023-03-18T08:16:17;94929.09;;;7.70;44.70
32243;BME280;18731;42.830;24.390;2023-03-18T08:18:43;94925.63;;;7.97;44.11
32243;BME280;18731;42.830;24.390;2023-03-18T08:21:10;94919.56;;;7.83;43.09
32243;BME280;18731;42.830;24.390;2023-03-18T08:23:36;94917.22;;;8.03;45.37
32243;BME280;18731;42.830;24.390;2023-03-18T08:26:02;94914.41;;;8.22;43.05
32243;BME280;18731;42.830;24.390;2023-03-18T08:28:28;94910.31;;;8.38;43.12
32243;BME280;18731;42.830;24.390;2023-03-18T08:30:55;94916.13;;;9.02;43.24
32243;BME280;18731;42.830;24.390;2023-03-18T08:33:25;94910.22;;;8.75;42.07
32243;BME280;18731;42.830;24.390;2023-03-18T08:35:52;94908.06;;;8.85;41.61
32243;BME280;18731;42.830;24.390;2023-03-18T08:38:18;94911.69;;;8.89;43.45
32243;BME280;18731;42.830;24.390;2023-03-18T08:40:44;94908.94;;;9.03;42.09
32243;BME280;18731;42.830;24.390;2023-03-18T08:43:10;94917.09;;;9.07;41.32
32243;BME280;18731;42.830;24.390;2023-03-18T08:45:36;94911.72;;;8.98;41.60
32243;BME280;18731;42.830;24.390;2023-03-18T08:48:02;94925.84;;;8.98;40.33
32243;BME280;18731;42.830;24.390;2023-03-18T08:50:27;94932.06;;;9.25;42.18
32243;BME280;18731;42.830;24.390;2023-03-18T08:52:58;94911.34;;;9.79;40.31
32243;BME280;18731;42.830;24.390;2023-03-18T08:55:29;94918.06;;;9.85;39.00
32243;BME280;18731;42.830;24.390;2023-03-18T08:57:56;94937.69;;;9.89;38.08
32243;BME280;18731;42.830;24.390;2023-03-18T09:00:23;94929.97;;;9.70;39.14
32243;BME280;18731;42.830;24.390;2023-03-18T09:02:51;94931.47;;;9.37;38.38
32243;BME280;18731;42.830;24.390;2023-03-18T09:05:18;94937.66;;;9.72;38.16
32243;BME280;18731;42.830;24.390;2023-03-18T09:07:43;94937.84;;;9.84;40.04
32243;BME280;18731;42.830;24.390;2023-03-18T09:10:10;94925.72;;;9.60;39.73
32243;BME280;18731;42.830;24.390;2023-03-18T09:12:38;94930.94;;;9.74;39.89
32243;BME280;18731;42.830;24.390;2023-03-18T09:15:04;94932.25;;;10.20;38.91
32243;BME280;18731;42.830;24.390;2023-03-18T09:17:30;94924.41;;;10.32;39.14
32243;BME280;18731;42.830;24.390;2023-03-18T09:19:56;94937.56;;;10.37;38.28
32243;BME280;18731;42.830;24.390;2023-03-18T09:22:22;94941.50;;;10.22;37.77
32243;BME280;18731;42.830;24.390;2023-03-18T09:24:48;94944.75;;;10.11;37.57
32243;BME280;18731;42.830;24.390;2023-03-18T09:27:13;94941.47;;;10.05;37.68
32243;BME280;18731;42.830;24.390;2023-03-18T09:29:39;94938.84;;;10.48;37.77
32243;BME280;18731;42.830;24.390;2023-03-18T09:32:05;94927.97;;;10.79;36.37
32243;BME280;18731;42.830;24.390;2023-03-18T09:34:31;94947.72;;;10.95;35.99
32243;BME280;18731;42.830;24.390;2023-03-18T09:36:57;94944.47;;;10.73;36.22
32243;BME280;18731;42.830;24.390;2023-03-18T09:39:23;94938.22;;;11.15;36.02
32243;BME280;18731;42.830;24.390;2023-03-18T09:44:36;94945.91;;;10.44;36.47
32243;BME280;18731;42.830;24.390;2023-03-18T09:53:05;94962.84;;;8.78;39.38
32243;BME280;18731;42.830;24.390;2023-03-18T09:55:46;94957.94;;;8.71;40.44
32243;BME280;18731;42.830;24.390;2023-03-18T09:58:51;94956.50;;;8.96;42.38
32243;BME280;18731;42.830;24.390;2023-03-18T10:01:20;94957.06;;;8.84;40.80
32243;BME280;18731;42.830;24.390;2023-03-18T10:03:52;94958.91;;;8.75;39.81
32243;BME280;18731;42.830;24.390;2023-03-18T10:06:22;94956.47;;;8.87;39.35
32243;BME280;18731;42.830;24.390;2023-03-18T10:16:29;94968.47;;;8.54;43.08
32243;BME280;18731;42.830;24.390;2023-03-18T10:18:55;94958.31;;;8.56;40.50
32243;BME280;18731;42.830;24.390;2023-03-18T10:21:33;94974.47;;;8.23;40.13
32243;BME280;18731;42.830;24.390;2023-03-18T10:26:51;94970.13;;;7.78;41.82
32243;BME280;18731;42.830;24.390;2023-03-18T10:29:44;94965.72;;;7.46;41.86
32243;BME280;18731;42.830;24.390;2023-03-18T10:32:27;94970.25;;;7.18;42.63
32243;BME280;18731;42.830;24.390;2023-03-18T10:40:23;94972.81;;;7.23;42.59
32243;BME280;18731;42.830;24.390;2023-03-18T10:42:50;94969.47;;;7.31;42.96
32243;BME280;18731;42.830;24.390;2023-03-18T10:45:30;94966.41;;;7.24;42.37
32243;BME280;18731;42.830;24.390;2023-03-18T10:48:09;94955.13;;;7.32;41.89
32243;BME280;18731;42.830;24.390;2023-03-18T10:50:41;94962.88;;;7.42;42.35
32243;BME280;18731;42.830;24.390;2023-03-18T10:53:19;94962.59;;;7.30;41.23
32243;BME280;18731;42.830;24.390;2023-03-18T10:56:04;94959.13;;;7.43;40.86
32243;BME280;18731;42.830;24.390;2023-03-18T10:58:30;94961.41;;;7.50;40.72
32243;BME280;18731;42.830;24.390;2023-03-18T11:00:56;94949.19;;;7.49;40.42
32243;BME280;18731;42.830;24.390;2023-03-18T11:03:29;94953.34;;;7.41;41.99
32243;BME280;18731;42.830;24.390;2023-03-18T11:05:57;94921.97;;;7.16;40.33
32243;BME280;18731;42.830;24.390;2023-03-18T11:08:31;94956.19;;;7.31;41.13
32243;BME280;18731;42.830;24.390;2023-03-18T11:11:42;94968.78;;;7.12;41.55
32243;BME280;18731;42.830;24.390;2023-03-18T11:14:09;94970.19;;;6.76;41.73
32243;BME280;18731;42.830;24.390;2023-03-18T11:19:26;94970.56;;;6.70;42.35
32243;BME280;18731;42.830;24.390;2023-03-18T11:22:20;94971.47;;;6.79;41.82
32243;BME280;18731;42.830;24.390;2023-03-18T11:25:16;94971.03;;;7.04;42.87
32243;BME280;18731;42.830;24.390;2023-03-18T11:27:47;94967.28;;;7.05;41.81
32243;BME280;18731;42.830;24.390;2023-03-18T11:30:19;94958.94;;;7.12;45.38
32243;BME280;18731;42.830;24.390;2023-03-18T11:33:12;94957.75;;;7.46;43.91
32243;BME280;18731;42.830;24.390;2023-03-18T11:38:13;94953.47;;;8.58;40.76
32243;BME280;18731;42.830;24.390;2023-03-18T11:40:39;94954.88;;;8.55;40.60
32243;BME280;18731;42.830;24.390;2023-03-18T11:43:16;94950.09;;;8.66;40.61
32243;BME280;18731;42.830;24.390;2023-03-18T11:45:51;94931.22;;;9.16;40.03
32243;BME280;18731;42.830;24.390;2023-03-18T11:51:09;94948.69;;;10.13;38.38
32243;BME280;18731;42.830;24.390;2023-03-18T11:54:02;94943.06;;;10.67;36.86
32243;BME280;18731;42.830;24.390;2023-03-18T12:02:00;94935.66;;;11.95;36.50
32243;BME280;18731;42.830;24.390;2023-03-18T12:32:39;94888.66;;;12.06;33.64
32243;BME280;18731;42.830;24.390;2023-03-18T12:35:39;94887.09;;;12.26;34.63
32243;BME280;18731;42.830;24.390;2023-03-18T12:38:16;94884.03;;;12.94;32.64
32243;BME280;18731;42.830;24.390;2023-03-18T12:41:04;94880.09;;;13.12;32.35
32243;BME280;18731;42.830;24.390;2023-03-18T12:48:54;94878.53;;;13.72;31.81
32243;BME280;18731;42.830;24.390;2023-03-18T12:51:29;94880.22;;;14.16;31.68
32243;BME280;18731;42.830;24.390;2023-03-18T12:54:03;94868.13;;;14.51;30.13
32243;BME280;18731;42.830;24.390;2023-03-18T12:56:36;94857.97;;;15.03;29.86
32243;BME280;18731;42.830;24.390;2023-03-18T12:59:11;94855.47;;;15.26;29.00
32243;BME280;18731;42.830;24.390;2023-03-18T13:01:45;94848.59;;;15.29;28.07
32243;BME280;18731;42.830;24.390;2023-03-18T13:04:20;94839.34;;;15.10;28.78
32243;BME280;18731;42.830;24.390;2023-03-18T13:09:42;94846.75;;;15.80;28.78
32243;BME280;18731;42.830;24.390;2023-03-18T13:12:22;94849.34;;;16.12;28.28
32243;BME280;18731;42.830;24.390;2023-03-18T13:17:56;94856.00;;;16.98;27.80
32243;BME280;18731;42.830;24.390;2023-03-18T13:20:28;94852.25;;;16.22;26.43
32243;BME280;18731;42.830;24.390;2023-03-18T13:23:04;94847.47;;;16.54;26.86
32243;BME280;18731;42.830;24.390;2023-03-18T13:39:21;94835.44;;;16.48;26.95
32243;BME280;18731;42.830;24.390;2023-03-18T13:42:17;94834.53;;;16.21;27.12
32243;BME280;18731;42.830;24.390;2023-03-18T13:47:20;94839.75;;;16.95;27.93
32243;BME280;18731;42.830;24.390;2023-03-18T13:49:47;94835.25;;;17.02;28.05
32243;BME280;18731;42.830;24.390;2023-03-18T13:52:28;94834.94;;;17.30;27.08
32243;BME280;18731;42.830;24.390;2023-03-18T13:55:05;94829.66;;;17.64;27.06
32243;BME280;18731;42.830;24.390;2023-03-18T13:57:35;94831.34;;;17.72;25.25
32243;BME280;18731;42.830;24.390;2023-03-18T14:00:24;94830.44;;;17.64;25.13
32243;BME280;18731;42.830;24.390;2023-03-18T14:05:40;94838.28;;;16.17;25.98
32243;BME280;18731;42.830;24.390;2023-03-18T14:16:17;94840.59;;;13.21;31.09
32243;BME280;18731;42.830;24.390;2023-03-18T14:19:02;94837.84;;;12.97;29.89
32243;BME280;18731;42.830;24.390;2023-03-18T14:21:43;94837.19;;;12.42;30.88
32243;BME280;18731;42.830;24.390;2023-03-18T14:24:22;94838.09;;;11.93;30.37
32243;BME280;18731;42.830;24.390;2023-03-18T14:27:15;94846.34;;;11.58;31.25
32243;BME280;18731;42.830;24.390;2023-03-18T14:29:44;94847.03;;;10.87;33.40
32243;BME280;18731;42.830;24.390;2023-03-18T14:35:16;94836.03;;;10.51;33.96
32243;BME280;18731;42.830;24.390;2023-03-18T14:40:36;94847.19;;;10.01;34.32
32243;BME280;18731;42.830;24.390;2023-03-18T14:43:33;94846.88;;;9.85;33.90
32243;BME280;18731;42.830;24.390;2023-03-18T14:46:12;94847.34;;;9.79;34.85
32243;BME280;18731;42.830;24.390;2023-03-18T14:48:41;94839.97;;;9.67;35.39
32243;BME280;18731;42.830;24.390;2023-03-18T14:51:14;94856.91;;;9.62;34.86
32243;BME280;18731;42.830;24.390;2023-03-18T14:54:03;94854.25;;;9.88;35.18
32243;BME280;18731;42.830;24.390;2023-03-18T14:56:38;94861.78;;;10.04;35.01
32243;BME280;18731;42.830;24.390;2023-03-18T14:59:04;94853.16;;;9.72;34.17
32243;BME280;18731;42.830;24.390;2023-03-18T15:01:38;94854.06;;;9.42;34.43
32243;BME280;18731;42.830;24.390;2023-03-18T15:04:06;94854.81;;;9.33;35.08
32243;BME280;18731;42.830;24.390;2023-03-18T15:06:39;94862.31;;;9.23;35.52
32243;BME280;18731;42.830;24.390;2023-03-18T15:09:12;94862.50;;;9.26;35.57
32243;BME280;18731;42.830;24.390;2023-03-18T15:11:42;94863.72;;;9.20;35.84
32243;BME280;18731;42.830;24.390;2023-03-18T15:14:35;94863.84;;;9.07;35.82
32243;BME280;18731;42.830;24.390;2023-03-18T15:17:06;94860.16;;;8.85;35.36
32243;BME280;18731;42.830;24.390;2023-03-18T15:19:36;94871.56;;;8.77;36.67
32243;BME280;18731;42.830;24.390;2023-03-18T15:22:03;94877.66;;;8.78;37.27
32243;BME280;18731;42.830;24.390;2023-03-18T15:24:31;94881.59;;;8.80;36.94
32243;BME280;18731;42.830;24.390;2023-03-18T15:27:03;94888.78;;;8.80;37.26
32243;BME280;18731;42.830;24.390;2023-03-18T15:29:35;94878.19;;;8.57;38.50
32243;BME280;18731;42.830;24.390;2023-03-18T15:32:28;94881.34;;;8.59;38.91
32243;BME280;18731;42.830;24.390;2023-03-18T15:35:16;94888.56;;;8.36;42.42
32243;BME280;18731;42.830;24.390;2023-03-18T15:37:45;94889.19;;;8.20;42.76
32243;BME280;18731;42.830;24.390;2023-03-18T15:40:28;94899.28;;;8.09;42.72
32243;BME280;18731;42.830;24.390;2023-03-18T15:45:40;94909.78;;;7.78;44.06
32243;BME280;18731;42.830;24.390;2023-03-18T15:48:13;94911.41;;;7.65;44.63
32243;BME280;18731;42.830;24.390;2023-03-18T15:50:57;94906.91;;;7.52;43.87
32243;BME280;18731;42.830;24.390;2023-03-18T15:53:26;94915.53;;;7.58;43.91
32243;BME280;18731;42.830;24.390;2023-03-18T15:55:58;94919.78;;;7.45;43.90
32243;BME280;18731;42.830;24.390;2023-03-18T15:58:36;94918.91;;;7.36;44.37
32243;BME280;18731;42.830;24.390;2023-03-18T16:01:03;94908.09;;;6.91;46.78
32243;BME280;18731;42.830;24.390;2023-03-18T16:03:33;94919.31;;;6.88;47.50
32243;BME280;18731;42.830;24.390;2023-03-18T16:06:00;94910.25;;;6.75;46.25
32243;BME280;18731;42.830;24.390;2023-03-18T16:08:26;94914.47;;;6.76;46.20
32243;BME280;18731;42.830;24.390;2023-03-18T16:10:54;94923.81;;;6.74;47.49
32243;BME280;18731;42.830;24.390;2023-03-18T16:13:27;94908.06;;;6.64;47.86
32243;BME280;18731;42.830;24.390;2023-03-18T16:15:54;94924.00;;;6.64;48.66
32243;BME280;18731;42.830;24.390;2023-03-18T16:18:21;94921.91;;;6.61;49.09
32243;BME280;18731;42.830;24.390;2023-03-18T16:20:48;94927.84;;;6.39;50.21
32243;BME280;18731;42.830;24.390;2023-03-18T16:23:15;94928.81;;;6.29;50.63
32243;BME280;18731;42.830;24.390;2023-03-18T16:25:47;94947.03;;;6.17;49.29
32243;BME280;18731;42.830;24.390;2023-03-18T16:28:20;94934.00;;;6.02;50.29
32243;BME280;18731;42.830;24.390;2023-03-18T16:30:47;94961.88;;;5.99;50.77
32243;BME280;18731;42.830;24.390;2023-03-18T16:33:15;94961.66;;;5.96;51.25
32243;BME280;18731;42.830;24.390;2023-03-18T16:35:42;94964.91;;;5.88;52.05
32243;BME280;18731;42.830;24.390;2023-03-18T16:38:16;94970.00;;;5.84;51.96
32243;BME280;18731;42.830;24.390;2023-03-18T16:40:43;94969.34;;;5.73;51.50
32243;BME280;18731;42.830;24.390;2023-03-18T16:43:29;94985.13;;;5.60;52.66
32243;BME280;18731;42.830;24.390;2023-03-18T16:46:00;94983.91;;;5.52;53.18
32243;BME280;18731;42.830;24.390;2023-03-18T16:48:30;94989.25;;;5.47;53.40
32243;BME280;18731;42.830;24.390;2023-03-18T16:50:56;94985.28;;;5.26;53.82
32243;BME280;18731;42.830;24.390;2023-03-18T16:53:26;94993.78;;;5.23;54.44
32243;BME280;18731;42.830;24.390;2023-03-18T16:55:56;94995.38;;;5.18;54.64
32243;BME280;18731;42.830;24.390;2023-03-18T16:58:28;94998.25;;;4.98;55.27
32243;BME280;18731;42.830;24.390;2023-03-18T17:00:54;95015.78;;;4.89;56.11
32243;BME280;18731;42.830;24.390;2023-03-18T17:03:21;95011.81;;;4.58;57.09
32243;BME280;18731;42.830;24.390;2023-03-18T17:05:48;95015.28;;;4.53;57.69
32243;BME280;18731;42.830;24.390;2023-03-18T17:08:17;95020.41;;;4.39;58.61
32243;BME280;18731;42.830;24.390;2023-03-18T17:10:43;95026.31;;;4.26;58.30
32243;BME280;18731;42.830;24.390;2023-03-18T17:13:15;95025.38;;;4.12;58.48
32243;BME280;18731;42.830;24.390;2023-03-18T17:15:42;95029.06;;;4.11;58.85
32243;BME280;18731;42.830;24.390;2023-03-18T17:18:12;95028.56;;;4.04;59.79
32243;BME280;18731;42.830;24.390;2023-03-18T17:20:38;95033.34;;;4.02;59.38
32243;BME280;18731;42.830;24.390;2023-03-18T17:23:05;95028.63;;;3.94;59.59
32243;BME280;18731;42.830;24.390;2023-03-18T17:25:32;95036.84;;;3.92;60.34
32243;BME280;18731;42.830;24.390;2023-03-18T17:28:01;95040.28;;;3.87;60.51
32243;BME280;18731;42.830;24.390;2023-03-18T17:30:35;95042.97;;;3.82;60.75
32243;BME280;18731;42.830;24.390;2023-03-18T17:33:02;95042.22;;;3.72;61.25
32243;BME280;18731;42.830;24.390;2023-03-18T17:35:29;95049.38;;;3.66;61.30
32243;BME280;18731;42.830;24.390;2023-03-18T17:37:55;95043.03;;;3.67;61.39
32243;BME280;18731;42.830;24.390;2023-03-18T17:40:22;95053.59;;;3.62;61.77
32243;BME280;18731;42.830;24.390;2023-03-18T17:42:50;95063.38;;;3.62;61.81
32243;BME280;18731;42.830;24.390;2023-03-18T17:48:12;95059.97;;;3.56;62.02
32243;BME280;18731;42.830;24.390;2023-03-18T17:50:39;95060.47;;;3.58;61.65
32243;BME280;18731;42.830;24.390;2023-03-18T17:53:07;95066.81;;;3.57;61.42
32243;BME280;18731;42.830;24.390;2023-03-18T17:55:44;95071.56;;;3.55;61.62
32243;BME280;18731;42.830;24.390;2023-03-18T17:58:17;95069.75;;;3.50;61.95
32243;BME280;18731;42.830;24.390;2023-03-18T18:00:44;95058.19;;;3.31;62.35
32243;BME280;18731;42.830;24.390;2023-03-18T18:05:48;95084.56;;;3.36;62.70
32243;BME280;18731;42.830;24.390;2023-03-18T18:08:15;95093.78;;;3.34;62.65
32243;BME280;18731;42.830;24.390;2023-03-18T18:10:45;95099.06;;;3.34;62.97
32243;BME280;18731;42.830;24.390;2023-03-18T18:13:22;95091.69;;;3.31;63.13
32243;BME280;18731;42.830;24.390;2023-03-18T18:15:49;95094.84;;;3.33;62.35
32243;BME280;18731;42.830;24.390;2023-03-18T18:18:21;95094.88;;;3.28;62.15
32243;BME280;18731;42.830;24.390;2023-03-18T18:20:56;95101.47;;;3.25;61.94
32243;BME280;18731;42.830;24.390;2023-03-18T18:23:34;95103.84;;;3.21;61.84
32243;BME280;18731;42.830;24.390;2023-03-18T18:26:02;95092.78;;;2.99;63.38
32243;BME280;18731;42.830;24.390;2023-03-18T18:28:34;95109.66;;;3.08;63.08
32243;BME280;18731;42.830;24.390;2023-03-18T18:31:01;95098.59;;;2.96;63.89
32243;BME280;18731;42.830;24.390;2023-03-18T18:33:29;95111.25;;;3.04;64.34
32243;BME280;18731;42.830;24.390;2023-03-18T18:35:54;95110.19;;;2.90;64.39
32243;BME280;18731;42.830;24.390;2023-03-18T18:38:20;95115.47;;;2.90;64.48
32243;BME280;18731;42.830;24.390;2023-03-18T18:40:47;95110.19;;;2.80;64.85
32243;BME280;18731;42.830;24.390;2023-03-18T18:43:15;95114.41;;;2.76;64.84
32243;BME280;18731;42.830;24.390;2023-03-18T18:45:41;95119.69;;;2.81;64.41
32243;BME280;18731;42.830;24.390;2023-03-18T18:48:15;95119.69;;;2.76;64.58
32243;BME280;18731;42.830;24.390;2023-03-18T18:50:42;95103.88;;;2.66;64.53
32243;BME280;18731;42.830;24.390;2023-03-18T18:53:23;95121.53;;;2.60;65.01
32243;BME280;18731;42.830;24.390;2023-03-18T18:55:51;95128.38;;;2.61;64.84
32243;BME280;18731;42.830;24.390;2023-03-18T18:58:20;95122.25;;;2.50;65.45
32243;BME280;18731;42.830;24.390;2023-03-18T19:00:48;95121.47;;;2.50;65.39
32243;BME280;18731;42.830;24.390;2023-03-18T19:03:17;95110.91;;;2.40;65.66
32243;BME280;18731;42.830;24.390;2023-03-18T19:05:44;95122.00;;;2.47;65.44
32243;BME280;18731;42.830;24.390;2023-03-18T19:08:27;95132.81;;;2.50;64.94
32243;BME280;18731;42.830;24.390;2023-03-18T19:10:58;95125.94;;;2.49;65.42
32243;BME280;18731;42.830;24.390;2023-03-18T19:13:27;95119.63;;;2.45;64.93